createdAt,value
2018-06-16T00:00:40.946Z,11.77
2018-06-16T00:01:40.955Z,11.73
2018-06-16T00:02:40.997Z,11.77
2018-06-16T00:03:40.938Z,11.78
2018-06-16T00:04:40.940Z,11.7
2018-06-16T00:05:40.941Z,11.71
2018-06-16T00:06:40.931Z,11.74
2018-06-16T00:07:40.938Z,11.68
2018-06-16T00:08:40.931Z,11.68
2018-06-16T00:09:41.014Z,11.73
2018-06-16T00:10:41.038Z,11.73
2018-06-16T00:11:41.210Z,11.77
2018-06-16T00:12:41.027Z,11.67
2018-06-16T00:13:41.508Z,11.64
2018-06-16T00:14:41.000Z,11.69
2018-06-16T00:15:40.984Z,11.66
2018-06-16T00:16:41.028Z,11.64
2018-06-16T00:17:41.033Z,11.61
2018-06-16T00:18:41.028Z,11.77
2018-06-16T00:19:41.034Z,11.69
2018-06-16T00:20:41.024Z,11.74
2018-06-16T00:21:41.244Z,11.67
2018-06-16T00:22:41.042Z,11.65
2018-06-16T00:23:40.996Z,11.65
2018-06-16T00:24:40.956Z,11.61
2018-06-16T00:25:40.995Z,11.61
2018-06-16T00:26:40.956Z,11.63
2018-06-16T00:27:41.030Z,11.69
2018-06-16T00:28:41.067Z,11.68
2018-06-16T00:29:40.915Z,11.68
2018-06-16T00:30:41.036Z,11.66
2018-06-16T00:31:40.986Z,11.61
2018-06-16T00:32:41.075Z,11.63
2018-06-16T00:33:41.018Z,11.57
2018-06-16T00:34:41.016Z,11.6
2018-06-16T00:35:40.937Z,11.59
2018-06-16T00:36:40.927Z,11.6
2018-06-16T00:37:41.202Z,11.59
2018-06-16T00:38:41.033Z,11.59
2018-06-16T00:39:41.046Z,11.51
2018-06-16T00:40:40.995Z,11.55
2018-06-16T00:41:41.036Z,11.5
2018-06-16T00:42:41.025Z,11.6
2018-06-16T00:43:41.004Z,11.51
2018-06-16T00:44:41.049Z,11.48
2018-06-16T00:45:40.940Z,11.51
2018-06-16T00:46:41.022Z,11.49
2018-06-16T00:47:41.086Z,11.52
2018-06-16T00:48:41.009Z,11.47
2018-06-16T00:49:40.941Z,11.48
2018-06-16T00:50:40.940Z,11.48
2018-06-16T00:51:41.403Z,11.45
2018-06-16T00:52:40.935Z,11.45
2018-06-16T00:53:40.975Z,11.46
2018-06-16T00:54:40.929Z,11.47
2018-06-16T00:55:41.114Z,11.44
2018-06-16T00:56:40.923Z,11.5
2018-06-16T00:57:41.063Z,11.47
2018-06-16T00:58:41.026Z,11.42
2018-06-16T00:59:40.963Z,11.48
2018-06-16T01:00:41.307Z,11.46
2018-06-16T01:01:41.031Z,11.54
2018-06-16T01:02:40.988Z,11.52
2018-06-16T01:03:40.919Z,11.54
2018-06-16T01:04:40.910Z,11.5
2018-06-16T01:05:40.991Z,11.5
2018-06-16T01:06:40.979Z,11.55
2018-06-16T01:07:40.931Z,11.53
2018-06-16T01:08:40.925Z,11.48
2018-06-16T01:09:40.987Z,11.44
2018-06-16T01:10:40.914Z,11.52
2018-06-16T01:11:40.915Z,11.51
2018-06-16T01:12:40.970Z,11.61
2018-06-16T01:13:40.963Z,11.47
2018-06-16T01:14:40.904Z,11.49
2018-06-16T01:15:40.930Z,11.54
2018-06-16T01:16:40.983Z,11.46
2018-06-16T01:17:40.927Z,11.48
2018-06-16T01:18:40.933Z,11.46
2018-06-16T01:19:40.997Z,11.48
2018-06-16T01:20:40.942Z,11.46
2018-06-16T01:21:41.030Z,11.44
2018-06-16T01:22:40.930Z,11.45
2018-06-16T01:23:41.062Z,11.46
2018-06-16T01:24:40.900Z,11.45
2018-06-16T01:25:40.995Z,11.44
2018-06-16T01:26:40.895Z,11.43
2018-06-16T01:27:41.104Z,11.4
2018-06-16T01:28:40.869Z,11.43
2018-06-16T01:29:40.915Z,11.35
2018-06-16T01:30:41.046Z,11.34
2018-06-16T01:31:41.053Z,11.43
2018-06-16T01:32:40.934Z,11.39
2018-06-16T01:33:40.899Z,11.46
2018-06-16T01:34:41.073Z,11.4
2018-06-16T01:35:40.906Z,11.35
2018-06-16T01:36:41.140Z,11.32
2018-06-16T01:37:40.958Z,11.32
2018-06-16T01:38:40.977Z,11.29
2018-06-16T01:39:41.015Z,11.29
2018-06-16T01:40:40.905Z,11.33
2018-06-16T01:41:41.030Z,11.34
2018-06-16T01:42:40.962Z,11.35
2018-06-16T01:43:40.886Z,11.36
2018-06-16T01:44:40.935Z,11.4
2018-06-16T01:45:41.076Z,11.5
2018-06-16T01:46:40.916Z,11.57
2018-06-16T01:47:40.942Z,11.64
2018-06-16T01:48:40.932Z,11.66
2018-06-16T01:49:40.884Z,11.68
2018-06-16T01:50:40.891Z,11.59
2018-06-16T01:51:40.906Z,11.68
2018-06-16T01:52:40.991Z,11.6
2018-06-16T01:53:40.902Z,11.67
2018-06-16T01:54:41.065Z,11.56
2018-06-16T01:55:40.942Z,11.56
2018-06-16T01:56:41.048Z,11.55
2018-06-16T01:57:41.010Z,11.5
2018-06-16T01:58:40.869Z,11.65
2018-06-16T01:59:40.950Z,11.54
2018-06-16T02:00:40.894Z,11.5
2018-06-16T02:01:40.922Z,11.44
2018-06-16T02:02:41.098Z,11.45
2018-06-16T02:03:40.972Z,11.48
2018-06-16T02:04:40.910Z,11.52
2018-06-16T02:05:40.936Z,11.51
2018-06-16T02:06:40.915Z,11.48
2018-06-16T02:07:41.143Z,11.47
2018-06-16T02:08:40.918Z,11.41
2018-06-16T02:09:40.886Z,11.46
2018-06-16T02:10:40.957Z,11.45
2018-06-16T02:11:40.910Z,11.43
2018-06-16T02:12:40.908Z,11.36
2018-06-16T02:13:40.922Z,11.43
2018-06-16T02:14:40.903Z,11.36
2018-06-16T02:15:40.984Z,11.35
2018-06-16T02:16:40.892Z,11.39
2018-06-16T02:17:40.924Z,11.4
2018-06-16T02:18:40.865Z,11.39
2018-06-16T02:19:40.889Z,11.31
2018-06-16T02:20:40.887Z,11.3
2018-06-16T02:21:40.879Z,11.24
2018-06-16T02:22:40.878Z,11.26
2018-06-16T02:23:40.882Z,11.23
2018-06-16T02:24:40.867Z,11.25
2018-06-16T02:25:40.867Z,11.22
2018-06-16T02:26:40.898Z,11.25
2018-06-16T02:27:40.921Z,11.25
2018-06-16T02:28:40.871Z,11.26
2018-06-16T02:29:40.894Z,11.23
2018-06-16T02:30:40.903Z,11.2
2018-06-16T02:31:40.882Z,11.28
2018-06-16T02:32:40.889Z,11.24
2018-06-16T02:33:40.902Z,11.29
2018-06-16T02:34:40.907Z,11.28
2018-06-16T02:35:40.899Z,11.26
2018-06-16T02:36:40.893Z,11.32
2018-06-16T02:37:40.898Z,11.22
2018-06-16T02:38:41.449Z,11.22
2018-06-16T02:39:41.025Z,11.27
2018-06-16T02:40:41.019Z,11.26
2018-06-16T02:41:40.870Z,11.24
2018-06-16T02:42:40.907Z,11.24
2018-06-16T02:43:40.924Z,11.39
2018-06-16T02:44:40.871Z,11.39
2018-06-16T02:45:40.909Z,11.35
2018-06-16T02:46:40.969Z,11.35
2018-06-16T02:47:40.903Z,11.4
2018-06-16T02:48:41.010Z,11.37
2018-06-16T02:49:40.862Z,11.38
2018-06-16T02:50:40.883Z,11.45
2018-06-16T02:51:41.633Z,11.44
2018-06-16T02:52:41.044Z,11.38
2018-06-16T02:53:41.288Z,11.45
2018-06-16T02:54:41.167Z,11.45
2018-06-16T02:55:40.864Z,11.45
2018-06-16T02:56:40.882Z,11.43
2018-06-16T02:57:40.901Z,11.46
2018-06-16T02:58:40.898Z,11.46
2018-06-16T02:59:40.886Z,11.48
2018-06-16T03:00:40.878Z,11.41
2018-06-16T03:01:40.946Z,11.52
2018-06-16T03:02:40.903Z,11.44
2018-06-16T03:03:40.898Z,11.51
2018-06-16T03:04:40.898Z,11.46
2018-06-16T03:05:40.885Z,11.41
2018-06-16T03:06:40.877Z,11.45
2018-06-16T03:07:40.896Z,11.38
2018-06-16T03:08:40.926Z,11.42
2018-06-16T03:09:40.909Z,11.4
2018-06-16T03:10:41.314Z,11.44
2018-06-16T03:11:40.923Z,11.47
2018-06-16T03:12:40.889Z,11.47
2018-06-16T03:13:40.870Z,11.44
2018-06-16T03:14:40.882Z,11.47
2018-06-16T03:15:40.883Z,11.41
2018-06-16T03:16:40.888Z,11.4
2018-06-16T03:17:40.885Z,11.43
2018-06-16T03:18:41.032Z,11.42
2018-06-16T03:19:40.896Z,11.45
2018-06-16T03:20:40.867Z,11.43
2018-06-16T03:21:40.870Z,11.38
2018-06-16T03:22:40.871Z,11.34
2018-06-16T03:23:40.853Z,11.34
2018-06-16T03:24:40.855Z,11.38
2018-06-16T03:25:40.909Z,11.36
2018-06-16T03:26:40.912Z,11.34
2018-06-16T03:27:40.909Z,11.42
2018-06-16T03:28:40.865Z,11.35
2018-06-16T03:29:40.929Z,11.39
2018-06-16T03:30:40.888Z,11.34
2018-06-16T03:31:40.886Z,11.38
2018-06-16T03:32:40.885Z,11.3
2018-06-16T03:33:40.892Z,11.29
2018-06-16T03:34:40.906Z,11.33
2018-06-16T03:35:40.856Z,11.29
2018-06-16T03:36:40.886Z,11.32
2018-06-16T03:37:40.865Z,11.25
2018-06-16T03:38:40.844Z,11.23
2018-06-16T03:39:40.841Z,11.24
2018-06-16T03:40:40.902Z,11.22
2018-06-16T03:41:40.888Z,11.14
2018-06-16T03:42:40.862Z,11.13
2018-06-16T03:43:40.894Z,11.1
2018-06-16T03:44:40.841Z,11.08
2018-06-16T03:45:40.851Z,11.08
2018-06-16T03:46:40.881Z,11.09
2018-06-16T03:47:40.856Z,11.08
2018-06-16T03:48:40.871Z,11.09
2018-06-16T03:49:40.852Z,11.07
2018-06-16T03:50:40.853Z,11.11
2018-06-16T03:51:40.901Z,11.12
2018-06-16T03:52:40.853Z,11.12
2018-06-16T03:53:40.868Z,11.14
2018-06-16T03:54:40.852Z,11.12
2018-06-16T03:55:40.912Z,11.1
2018-06-16T03:56:40.853Z,11.09
2018-06-16T03:57:40.859Z,11.11
2018-06-16T03:58:40.914Z,11.1
2018-06-16T03:59:40.864Z,11.14
2018-06-16T04:00:41.002Z,11.13
2018-06-16T04:01:40.893Z,11.14
2018-06-16T04:02:41.272Z,11.15
2018-06-16T04:03:41.005Z,11.15
2018-06-16T04:04:41.106Z,11.13
2018-06-16T04:05:40.848Z,11.16
2018-06-16T04:06:40.890Z,11.17
2018-06-16T04:07:40.843Z,11.15
2018-06-16T04:08:40.893Z,11.13
2018-06-16T04:09:41.034Z,11.14
2018-06-16T04:10:40.925Z,11.23
2018-06-16T04:11:40.864Z,11.17
2018-06-16T04:12:40.903Z,11.13
2018-06-16T04:13:41.018Z,11.19
2018-06-16T04:14:40.920Z,11.15
2018-06-16T04:15:40.984Z,11.13
2018-06-16T04:16:40.872Z,11.16
2018-06-16T04:17:41.173Z,11.14
2018-06-16T04:18:41.208Z,11.15
2018-06-16T04:19:41.123Z,11.14
2018-06-16T04:20:44.853Z,11.14
2018-06-16T04:21:40.906Z,11.18
2018-06-16T04:22:40.869Z,11.18
2018-06-16T04:23:40.849Z,11.18
2018-06-16T04:24:41.040Z,11.2
2018-06-16T04:25:40.857Z,11.24
2018-06-16T04:26:40.887Z,11.27
2018-06-16T04:27:40.863Z,11.33
2018-06-16T04:28:40.963Z,11.38
2018-06-16T04:29:40.849Z,11.33
2018-06-16T04:30:40.820Z,11.34
2018-06-16T04:31:40.861Z,11.33
2018-06-16T04:32:40.877Z,11.39
2018-06-16T04:33:40.972Z,11.37
2018-06-16T04:34:41.088Z,11.36
2018-06-16T04:35:40.880Z,11.34
2018-06-16T04:36:40.857Z,11.38
2018-06-16T04:37:40.899Z,11.41
2018-06-16T04:38:40.877Z,11.44
2018-06-16T04:39:40.996Z,11.47
2018-06-16T04:40:40.838Z,11.46
2018-06-16T04:41:40.831Z,11.41
2018-06-16T04:42:40.882Z,11.38
2018-06-16T04:43:40.871Z,11.45
2018-06-16T04:44:40.840Z,11.4
2018-06-16T04:45:41.933Z,11.44
2018-06-16T04:46:40.854Z,11.41
2018-06-16T04:47:40.839Z,11.47
2018-06-16T04:48:40.843Z,11.52
2018-06-16T04:49:40.855Z,11.54
2018-06-16T04:50:41.076Z,11.51
2018-06-16T04:51:40.841Z,11.65
2018-06-16T04:52:40.819Z,11.72
2018-06-16T04:53:40.901Z,11.65
2018-06-16T04:54:40.844Z,11.59
2018-06-16T04:55:40.852Z,11.54
2018-06-16T04:56:40.836Z,11.62
2018-06-16T04:57:40.882Z,11.56
2018-06-16T04:58:40.816Z,11.61
2018-06-16T04:59:40.833Z,11.56
2018-06-16T05:00:40.851Z,11.56
2018-06-16T05:01:40.820Z,11.52
2018-06-16T05:02:40.825Z,11.59
2018-06-16T05:03:40.825Z,11.62
2018-06-16T05:04:40.823Z,11.64
2018-06-16T05:05:40.843Z,11.58
2018-06-16T05:06:40.826Z,11.54
2018-06-16T05:07:40.847Z,11.51
2018-06-16T05:08:41.194Z,11.53
2018-06-16T05:09:40.846Z,11.63
2018-06-16T05:10:40.870Z,11.59
2018-06-16T05:11:41.035Z,11.53
2018-06-16T05:12:41.859Z,11.54
2018-06-16T05:13:41.078Z,11.59
2018-06-16T05:14:40.840Z,11.58
2018-06-16T05:15:40.856Z,11.54
2018-06-16T05:16:40.855Z,11.62
2018-06-16T05:17:40.841Z,11.54
2018-06-16T05:18:40.877Z,11.57
2018-06-16T05:19:41.263Z,11.57
2018-06-16T05:20:40.948Z,11.56
2018-06-16T05:21:40.889Z,11.59
2018-06-16T05:22:41.064Z,11.57
2018-06-16T05:23:40.817Z,11.54
2018-06-16T05:24:40.926Z,11.54
2018-06-16T05:25:41.359Z,11.68
2018-06-16T05:26:40.826Z,11.66
2018-06-16T05:27:41.036Z,11.58
2018-06-16T05:28:40.857Z,11.6
2018-06-16T05:29:41.002Z,11.65
2018-06-16T05:30:40.855Z,11.61
2018-06-16T05:31:40.838Z,11.63
2018-06-16T05:32:40.850Z,11.61
2018-06-16T05:33:40.843Z,11.64
2018-06-16T05:34:40.812Z,11.6
2018-06-16T05:35:40.867Z,11.59
2018-06-16T05:36:40.906Z,11.6
2018-06-16T05:37:40.884Z,11.55
2018-06-16T05:38:40.823Z,11.53
2018-06-16T05:39:40.830Z,11.51
2018-06-16T05:40:40.822Z,11.52
2018-06-16T05:41:40.852Z,11.51
2018-06-16T05:42:41.072Z,11.47
2018-06-16T05:43:40.842Z,11.39
2018-06-16T05:44:40.911Z,11.29
2018-06-16T05:45:40.835Z,11.31
2018-06-16T05:46:40.997Z,11.26
2018-06-16T05:47:41.062Z,11.3
2018-06-16T05:48:40.827Z,11.3
2018-06-16T05:49:41.050Z,11.26
2018-06-16T05:50:40.944Z,11.23
2018-06-16T05:51:40.929Z,11.28
2018-06-16T05:52:41.010Z,11.22
2018-06-16T05:53:40.915Z,11.16
2018-06-16T05:54:40.878Z,11.18
2018-06-16T05:55:40.854Z,11.23
2018-06-16T05:56:41.000Z,11.21
2018-06-16T05:57:41.080Z,11.09
2018-06-16T05:58:40.842Z,11.13
2018-06-16T05:59:41.097Z,11.13
2018-06-16T06:00:40.844Z,11.16
2018-06-16T06:01:40.862Z,11.16
2018-06-16T06:02:40.870Z,11.14
2018-06-16T06:03:40.825Z,11.14
2018-06-16T06:04:40.972Z,11.15
2018-06-16T06:05:40.860Z,11.19
2018-06-16T06:06:40.873Z,11.04
2018-06-16T06:07:40.822Z,11.17
2018-06-16T06:08:40.864Z,11.18
2018-06-16T06:09:40.791Z,11.21
2018-06-16T06:10:40.810Z,11.22
2018-06-16T06:11:40.806Z,11.16
2018-06-16T06:12:40.797Z,11.18
2018-06-16T06:13:40.784Z,11.19
2018-06-16T06:14:40.851Z,11.2
2018-06-16T06:15:41.770Z,11.18
2018-06-16T06:16:40.803Z,11.14
2018-06-16T06:17:40.831Z,11.26
2018-06-16T06:18:40.821Z,11.35
2018-06-16T06:19:40.969Z,11.34
2018-06-16T06:20:40.880Z,11.34
2018-06-16T06:21:40.810Z,11.31
2018-06-16T06:22:41.086Z,11.33
2018-06-16T06:23:40.842Z,11.34
2018-06-16T06:24:40.986Z,11.16
2018-06-16T06:25:40.836Z,11.25
2018-06-16T06:26:40.793Z,11.3
2018-06-16T06:27:40.840Z,11.33
2018-06-16T06:28:42.257Z,11.42
2018-06-16T06:29:40.883Z,11.38
2018-06-16T06:30:40.966Z,11.4
2018-06-16T06:31:40.861Z,11.4
2018-06-16T06:32:40.959Z,11.34
2018-06-16T06:33:40.897Z,11.34
2018-06-16T06:34:40.980Z,11.34
2018-06-16T06:35:40.822Z,11.35
2018-06-16T06:36:40.829Z,11.36
2018-06-16T06:37:41.438Z,11.3
2018-06-16T06:38:41.035Z,11.37
2018-06-16T06:39:40.801Z,11.44
2018-06-16T06:40:40.818Z,11.41
2018-06-16T06:41:40.838Z,11.31
2018-06-16T06:42:40.785Z,11.29
2018-06-16T06:43:40.829Z,11.34
2018-06-16T06:44:40.875Z,11.29
2018-06-16T06:45:40.820Z,11.34
2018-06-16T06:46:40.781Z,11.36
2018-06-16T06:47:40.832Z,11.4
2018-06-16T06:48:40.810Z,11.47
2018-06-16T06:49:40.809Z,11.43
2018-06-16T06:50:41.046Z,11.41
2018-06-16T06:51:41.084Z,11.42
2018-06-16T06:52:40.775Z,11.46
2018-06-16T06:53:40.823Z,11.53
2018-06-16T06:54:40.932Z,11.54
2018-06-16T06:55:40.818Z,11.51
2018-06-16T06:56:40.782Z,11.56
2018-06-16T06:57:40.900Z,11.54
2018-06-16T06:58:40.837Z,11.48
2018-06-16T06:59:40.776Z,11.51
2018-06-16T07:00:40.901Z,11.54
2018-06-16T07:01:40.777Z,11.5
2018-06-16T07:02:40.789Z,11.42
2018-06-16T07:03:40.840Z,11.43
2018-06-16T07:04:40.784Z,11.47
2018-06-16T07:05:40.977Z,11.49
2018-06-16T07:06:40.791Z,11.5
2018-06-16T07:07:40.853Z,11.44
2018-06-16T07:08:40.842Z,11.47
2018-06-16T07:09:40.839Z,11.49
2018-06-16T07:10:41.946Z,11.46
2018-06-16T07:11:40.827Z,11.5
2018-06-16T07:12:40.772Z,11.46
2018-06-16T07:13:40.770Z,11.51
2018-06-16T07:14:40.825Z,11.55
2018-06-16T07:15:40.820Z,11.55
2018-06-16T07:16:40.795Z,11.5
2018-06-16T07:17:40.840Z,11.47
2018-06-16T07:18:40.759Z,11.5
2018-06-16T07:19:40.831Z,11.49
2018-06-16T07:20:40.795Z,11.51
2018-06-16T07:21:40.801Z,11.55
2018-06-16T07:22:40.765Z,11.6
2018-06-16T07:23:40.837Z,11.63
2018-06-16T07:24:40.770Z,11.55
2018-06-16T07:25:40.806Z,11.57
2018-06-16T07:26:40.794Z,11.59
2018-06-16T07:27:40.773Z,11.62
2018-06-16T07:28:40.808Z,11.65
2018-06-16T07:29:40.829Z,11.66
2018-06-16T07:30:40.963Z,11.67
2018-06-16T07:31:40.796Z,11.67
2018-06-16T07:32:40.813Z,11.64
2018-06-16T07:33:45.347Z,11.6
2018-06-16T07:34:40.815Z,11.51
2018-06-16T07:35:40.747Z,11.51
2018-06-16T07:36:40.782Z,11.6
2018-06-16T07:37:40.798Z,11.63
2018-06-16T07:38:40.794Z,11.6
2018-06-16T07:39:40.764Z,11.63
2018-06-16T07:40:40.756Z,11.62
2018-06-16T07:41:40.775Z,11.58
2018-06-16T07:42:40.843Z,11.61
2018-06-16T07:43:42.221Z,11.56
2018-06-16T07:44:41.933Z,11.7
2018-06-16T07:45:40.767Z,11.77
2018-06-16T07:46:40.786Z,11.79
2018-06-16T07:47:40.786Z,11.66
2018-06-16T07:48:41.025Z,11.73
2018-06-16T07:49:40.761Z,11.86
2018-06-16T07:50:40.787Z,11.8
2018-06-16T07:51:40.768Z,11.84
2018-06-16T07:52:40.793Z,11.74
2018-06-16T07:53:40.848Z,11.65
2018-06-16T07:54:40.759Z,11.77
2018-06-16T07:55:40.805Z,11.8
2018-06-16T07:56:41.083Z,11.68
2018-06-16T07:57:40.774Z,11.76
2018-06-16T07:58:40.792Z,11.66
2018-06-16T07:59:40.800Z,11.74
2018-06-16T08:00:41.068Z,11.78
2018-06-16T08:01:40.809Z,11.76
2018-06-16T08:02:41.089Z,11.85
2018-06-16T08:03:40.788Z,11.92
2018-06-16T08:04:40.819Z,11.8
2018-06-16T08:05:40.922Z,11.75
2018-06-16T08:06:40.808Z,11.74
2018-06-16T08:07:40.821Z,11.76
2018-06-16T08:08:40.768Z,11.78
2018-06-16T08:09:40.763Z,11.81
2018-06-16T08:10:40.773Z,11.94
2018-06-16T08:11:40.812Z,11.92
2018-06-16T08:12:41.071Z,11.9
2018-06-16T08:13:40.760Z,11.74
2018-06-16T08:14:40.789Z,11.82
2018-06-16T08:15:40.905Z,11.82
2018-06-16T08:16:40.775Z,11.69
2018-06-16T08:17:40.759Z,11.72
2018-06-16T08:18:40.781Z,11.64
2018-06-16T08:19:40.768Z,11.69
2018-06-16T08:20:40.828Z,11.76
2018-06-16T08:21:40.773Z,11.79
2018-06-16T08:22:40.751Z,11.9
2018-06-16T08:23:40.807Z,11.97
2018-06-16T08:24:41.386Z,12
2018-06-16T08:25:40.790Z,11.89
2018-06-16T08:26:40.793Z,11.96
2018-06-16T08:27:40.825Z,12.05
2018-06-16T08:28:40.797Z,12.03
2018-06-16T08:29:40.793Z,12.1
2018-06-16T08:30:40.824Z,12.2
2018-06-16T08:31:40.820Z,12.05
2018-06-16T08:32:40.750Z,12.1
2018-06-16T08:33:40.764Z,12.09
2018-06-16T08:34:41.082Z,11.78
2018-06-16T08:35:40.783Z,11.82
2018-06-16T08:36:40.757Z,11.96
2018-06-16T08:37:40.781Z,11.55
2018-06-16T08:38:40.783Z,11.68
2018-06-16T08:39:40.808Z,11.73
2018-06-16T08:40:40.795Z,11.61
2018-06-16T08:41:40.776Z,11.67
2018-06-16T08:42:40.847Z,11.89
2018-06-16T08:43:40.899Z,12.11
2018-06-16T08:44:40.881Z,12.01
2018-06-16T08:45:40.928Z,11.98
2018-06-16T08:46:40.964Z,12.03
2018-06-16T08:47:40.957Z,11.95
2018-06-16T08:48:41.153Z,11.88
2018-06-16T08:49:40.959Z,11.84
2018-06-16T08:50:40.800Z,11.95
2018-06-16T08:51:40.870Z,12.22
2018-06-16T08:52:40.849Z,12.16
2018-06-16T08:53:40.797Z,11.85
2018-06-16T08:54:40.867Z,11.59
2018-06-16T08:55:41.266Z,11.69
2018-06-16T08:56:40.836Z,11.7
2018-06-16T08:57:40.959Z,11.7
2018-06-16T08:58:40.851Z,11.74
2018-06-16T08:59:40.835Z,11.9
2018-06-16T09:00:40.803Z,11.93
2018-06-16T09:01:40.770Z,11.91
2018-06-16T09:02:40.778Z,11.61
2018-06-16T09:03:40.771Z,11.55
2018-06-16T09:04:40.757Z,11.71
2018-06-16T09:05:40.739Z,11.69
2018-06-16T09:06:40.808Z,11.56
2018-06-16T09:07:40.776Z,11.39
2018-06-16T09:08:40.733Z,11.48
2018-06-16T09:09:40.742Z,11.61
2018-06-16T09:10:40.775Z,11.63
2018-06-16T09:11:41.013Z,11.36
2018-06-16T09:12:40.877Z,11.2
2018-06-16T09:13:40.759Z,11.38
2018-06-16T09:14:40.750Z,11.58
2018-06-16T09:15:40.760Z,11.37
2018-06-16T09:16:40.861Z,11.39
2018-06-16T09:17:40.780Z,11.3
2018-06-16T09:18:40.792Z,11.27
2018-06-16T09:19:40.804Z,11.26
2018-06-16T09:20:40.745Z,11.16
2018-06-16T09:21:40.760Z,11.29
2018-06-16T09:22:41.166Z,11.39
2018-06-16T09:23:40.853Z,11.64
2018-06-16T09:24:40.766Z,11.56
2018-06-16T09:25:40.870Z,11.11
2018-06-16T09:26:40.781Z,11.06
2018-06-16T09:27:40.748Z,11.16
2018-06-16T09:28:40.793Z,10.93
2018-06-16T09:29:40.816Z,10.77
2018-06-16T09:30:40.781Z,10.37
2018-06-16T09:31:41.204Z,10.65
2018-06-16T09:32:40.878Z,10.2
2018-06-16T09:33:40.734Z,10.5
2018-06-16T09:34:40.734Z,10.96
2018-06-16T09:35:40.759Z,10.62
2018-06-16T09:36:40.713Z,10.56
2018-06-16T09:37:40.742Z,10.44
2018-06-16T09:38:40.769Z,10.3
2018-06-16T09:39:40.842Z,10.68
2018-06-16T09:40:40.775Z,11.01
2018-06-16T09:41:40.725Z,10.52
2018-06-16T09:42:40.741Z,10.44
2018-06-16T09:43:40.730Z,10.69
2018-06-16T09:44:40.865Z,10.81
2018-06-16T09:45:40.863Z,10.73
2018-06-16T09:46:40.838Z,10.31
2018-06-16T09:47:40.881Z,10.13
2018-06-16T09:48:40.869Z,9.54
2018-06-16T09:49:40.870Z,9.79
2018-06-16T09:50:40.857Z,10.07
2018-06-16T09:51:40.915Z,10.49
2018-06-16T09:52:41.595Z,9.94
2018-06-16T09:53:40.709Z,10.29
2018-06-16T09:54:40.747Z,10.68
2018-06-16T09:55:40.742Z,10.76
2018-06-16T09:56:40.828Z,10.57
2018-06-16T09:57:40.709Z,10.67
2018-06-16T09:58:40.728Z,10.73
2018-06-16T09:59:40.758Z,10.37
2018-06-16T10:00:40.758Z,10.59
2018-06-16T10:01:40.774Z,10.54
2018-06-16T10:02:40.736Z,10.77
2018-06-16T10:03:40.745Z,10.3
2018-06-16T10:04:40.736Z,10.85
2018-06-16T10:05:40.779Z,10.62
2018-06-16T10:06:40.742Z,10.19
2018-06-16T10:07:40.958Z,10.14
2018-06-16T10:08:43.631Z,10.34
2018-06-16T10:09:42.153Z,10.21
2018-06-16T10:10:41.356Z,10.46
2018-06-16T10:11:43.489Z,10.56
2018-06-16T10:12:40.777Z,10.68
2018-06-16T10:13:40.718Z,10.77
2018-06-16T10:14:40.735Z,10.63
2018-06-16T10:15:41.604Z,10.57
2018-06-16T10:16:42.532Z,9.97
2018-06-16T10:17:41.065Z,9.68
2018-06-16T10:18:40.930Z,9.87
2018-06-16T10:19:40.736Z,10.28
2018-06-16T10:20:42.005Z,10.4
2018-06-16T10:21:40.745Z,10.54
2018-06-16T10:22:40.829Z,10.79
2018-06-16T10:23:40.780Z,10.83
2018-06-16T10:24:40.730Z,10.8
2018-06-16T10:25:40.853Z,10.57
2018-06-16T10:26:40.895Z,10.61
2018-06-16T10:27:40.788Z,10.71
2018-06-16T10:28:40.727Z,10.77
2018-06-16T10:29:40.748Z,10.7
2018-06-16T10:30:41.708Z,10.46
2018-06-16T10:31:41.186Z,10.31
2018-06-16T10:32:40.896Z,10.07
2018-06-16T10:33:40.732Z,10.37
2018-06-16T10:34:40.732Z,10.29
2018-06-16T10:35:40.734Z,10.48
2018-06-16T10:36:40.915Z,10.59
2018-06-16T10:37:40.738Z,11.02
2018-06-16T10:38:40.742Z,11.06
2018-06-16T10:39:40.745Z,10.8
2018-06-16T10:40:40.812Z,10.39
2018-06-16T10:41:40.779Z,10.55
2018-06-16T10:42:40.755Z,10.38
2018-06-16T10:43:40.847Z,10.4
2018-06-16T10:44:40.807Z,10.6
2018-06-16T10:45:40.882Z,10.88
2018-06-16T10:46:40.820Z,10.82
2018-06-16T10:47:40.750Z,10.73
2018-06-16T10:48:40.860Z,10.58
2018-06-16T10:49:40.784Z,10.67
2018-06-16T10:50:40.793Z,10.74
2018-06-16T10:51:40.786Z,10.84
2018-06-16T10:52:40.742Z,10.18
2018-06-16T10:53:40.763Z,10.39
2018-06-16T10:54:40.757Z,10.26
2018-06-16T10:55:40.765Z,10.23
2018-06-16T10:56:40.787Z,10.3
2018-06-16T10:57:40.768Z,10.86
2018-06-16T10:58:40.752Z,10.98
2018-06-16T10:59:40.791Z,10.75
2018-06-16T11:00:40.767Z,10.68
2018-06-16T11:01:40.873Z,10.48
2018-06-16T11:02:40.762Z,10.57
2018-06-16T11:03:40.778Z,10.73
2018-06-16T11:04:40.797Z,10.54
2018-06-16T11:05:40.811Z,10.7
2018-06-16T11:06:40.827Z,10.51
2018-06-16T11:07:40.778Z,10.51
2018-06-16T11:08:40.864Z,10.75
2018-06-16T11:09:40.763Z,10.56
2018-06-16T11:10:40.832Z,10.3
2018-06-16T11:11:41.026Z,10.31
2018-06-16T11:12:40.821Z,10.54
2018-06-16T11:13:40.797Z,10.68
2018-06-16T11:14:40.779Z,10.49
2018-06-16T11:15:40.965Z,10.15
2018-06-16T11:16:40.780Z,10.33
2018-06-16T11:17:40.805Z,10.13
2018-06-16T11:18:40.806Z,9.96
2018-06-16T11:19:40.835Z,10.04
2018-06-16T11:20:40.789Z,10.25
2018-06-16T11:21:40.930Z,10.6
2018-06-16T11:22:40.801Z,10.31
2018-06-16T11:23:40.863Z,10.13
2018-06-16T11:24:40.798Z,10.51
2018-06-16T11:25:40.785Z,10.59
2018-06-16T11:26:41.169Z,10.5
2018-06-16T11:27:41.015Z,10.61
2018-06-16T11:28:40.977Z,10.68
2018-06-16T11:29:40.839Z,10.42
2018-06-16T11:30:40.992Z,10.53
2018-06-16T11:31:40.883Z,10.67
2018-06-16T11:32:40.834Z,10.79
2018-06-16T11:33:40.984Z,10.71
2018-06-16T11:34:40.991Z,10.36
2018-06-16T11:35:40.999Z,10.19
2018-06-16T11:36:40.994Z,10.57
2018-06-16T11:37:40.844Z,10.44
2018-06-16T11:38:41.015Z,10.41
2018-06-16T11:39:41.978Z,10.29
2018-06-16T11:40:40.843Z,10.37
2018-06-16T11:41:40.937Z,10.68
2018-06-16T11:42:40.835Z,10.84
2018-06-16T11:43:41.049Z,10.48
2018-06-16T11:44:41.052Z,10.44
2018-06-16T11:45:40.866Z,10.76
2018-06-16T11:46:40.963Z,10.51
2018-06-16T11:47:40.836Z,10.54
2018-06-16T11:48:41.299Z,10.71
2018-06-16T11:49:41.082Z,10.59
2018-06-16T11:50:40.839Z,10.48
2018-06-16T11:51:40.998Z,10.4
2018-06-16T11:52:40.844Z,10.13
2018-06-16T11:53:41.108Z,10.09
2018-06-16T11:54:41.013Z,10.21
2018-06-16T11:55:41.024Z,10.53
2018-06-16T11:56:41.133Z,10.7
2018-06-16T11:57:41.300Z,10.38
2018-06-16T11:58:41.051Z,10.13
2018-06-16T11:59:40.943Z,10.08
2018-06-16T12:00:41.074Z,10.28
2018-06-16T12:01:40.869Z,10.63
2018-06-16T12:02:40.857Z,10.48
2018-06-16T12:03:40.979Z,10.05
2018-06-16T12:04:40.983Z,9.84
2018-06-16T12:05:40.835Z,9.85
2018-06-16T12:06:40.848Z,10.11
2018-06-16T12:07:40.870Z,10.31
2018-06-16T12:08:41.023Z,10.41
2018-06-16T12:09:41.029Z,10.24
2018-06-16T12:10:40.841Z,10.5
2018-06-16T12:11:40.882Z,10.19
2018-06-16T12:12:40.876Z,10.57
2018-06-16T12:13:41.001Z,10.49
2018-06-16T12:14:40.880Z,10.43
2018-06-16T12:15:40.861Z,10.52
2018-06-16T12:16:40.900Z,10.67
2018-06-16T12:17:40.900Z,10.65
2018-06-16T12:18:41.033Z,10.53
2018-06-16T12:19:40.993Z,10.19
2018-06-16T12:20:40.851Z,10.51
2018-06-16T12:21:40.872Z,10.03
2018-06-16T12:22:40.854Z,9.94
2018-06-16T12:23:41.011Z,9.98
2018-06-16T12:24:41.032Z,10.1
2018-06-16T12:25:41.035Z,10.62
2018-06-16T12:26:40.928Z,10.28
2018-06-16T12:27:41.056Z,10.4
2018-06-16T12:28:41.055Z,10.37
2018-06-16T12:29:43.508Z,10.44
2018-06-16T12:30:40.951Z,10.61
2018-06-16T12:31:41.004Z,10.4
2018-06-16T12:32:41.089Z,10.66
2018-06-16T12:33:40.979Z,10.41
2018-06-16T12:34:40.912Z,10.3
2018-06-16T12:35:41.082Z,10.18
2018-06-16T12:36:40.935Z,9.77
2018-06-16T12:37:40.906Z,10.03
2018-06-16T12:38:41.122Z,10.04
2018-06-16T12:39:40.894Z,9.96
2018-06-16T12:40:40.878Z,10.21
2018-06-16T12:41:40.876Z,10.04
2018-06-16T12:42:40.935Z,9.92
2018-06-16T12:43:42.078Z,10.01
2018-06-16T12:44:42.510Z,9.98
2018-06-16T12:45:40.908Z,10.05
2018-06-16T12:46:40.974Z,9.9
2018-06-16T12:47:40.900Z,10.16
2018-06-16T12:48:40.976Z,10.14
2018-06-16T12:49:41.074Z,9.89
2018-06-16T12:50:40.928Z,10.07
2018-06-16T12:51:40.913Z,10.2
2018-06-16T12:52:41.072Z,10.37
2018-06-16T12:53:41.116Z,10.26
2018-06-16T12:54:41.071Z,10.57
2018-06-16T12:55:41.003Z,10.76
2018-06-16T12:56:41.507Z,10.83